Time;durP1;ratioP1;P1;durP2;ratioP2;P2;SDS_P1;SDS_P2;PMS_P1;PMS_P2;Temp;Humidity;BMP_temperature;BMP_pressure;BME280_temperature;BME280_humidity;BME280_pressure;Samples;Min_cycle;Max_cycle;Signal;HPM_P1;HPM_P2
2022/05/27 00:02:02;;;;;;;5.90;3.88;;;18.10;92.00;;;;;;5011451;28;20858;-53
2022/05/27 00:04:28;;;;;;;8.23;3.72;;;18.10;92.00;;;;;;5012367;28;20037;-54
2022/05/27 00:06:54;;;;;;;7.20;4.43;;;18.00;92.10;;;;;;5010009;28;20274;-55
2022/05/27 00:09:21;;;;;;;8.55;3.80;;;18.20;91.90;;;;;;5012829;28;20030;-55
2022/05/27 00:11:47;;;;;;;6.20;3.70;;;18.20;91.90;;;;;;5000480;28;20109;-52
2022/05/27 00:14:12;;;;;;;7.65;3.80;;;18.20;91.90;;;;;;4993498;28;20141;-53
2022/05/27 00:16:38;;;;;;;5.22;3.30;;;18.20;91.80;;;;;;4999828;28;20088;-52
2022/05/27 00:19:04;;;;;;;4.68;3.58;;;18.20;91.70;;;;;;5012773;28;20493;-51
2022/05/27 00:21:29;;;;;;;7.63;3.47;;;18.20;91.80;;;;;;5013206;28;20062;-54
2022/05/27 00:23:55;;;;;;;5.90;3.70;;;18.20;91.80;;;;;;5012347;28;20049;-54
2022/05/27 00:26:21;;;;;;;5.10;3.55;;;18.20;91.80;;;;;;5012927;28;20033;-55
2022/05/27 00:28:46;;;;;;;8.13;3.50;;;18.20;91.80;;;;;;5012629;28;20033;-52
2022/05/27 00:31:12;;;;;;;7.20;3.92;;;18.30;91.70;;;;;;5013070;28;20046;-52
2022/05/27 00:33:38;;;;;;;5.47;3.63;;;18.20;91.90;;;;;;5012943;28;20046;-54
2022/05/27 00:36:09;;;;;;;6.65;3.30;;;18.20;91.90;;;;;;5012481;28;20221;-51
2022/05/27 00:38:36;;;;;;;8.32;4.05;;;18.20;91.80;;;;;;5012608;28;20489;-53
2022/05/27 00:41:01;;;;;;;7.13;3.40;;;18.30;91.70;;;;;;5011601;28;20561;-54
2022/05/27 00:43:27;;;;;;;5.63;3.53;;;18.30;91.80;;;;;;5012276;28;20161;-50
2022/05/27 00:45:59;;;;;;;6.75;3.65;;;18.30;91.80;;;;;;5010553;28;20085;-52
2022/05/27 00:48:26;;;;;;;8.30;3.58;;;18.30;91.90;;;;;;5012575;28;20052;-54
2022/05/27 00:50:52;;;;;;;4.80;3.20;;;18.20;92.10;;;;;;5012163;28;20455;-53
2022/05/27 00:53:23;;;;;;;7.05;3.50;;;18.10;92.30;;;;;;5012458;28;20026;-54
2022/05/27 00:55:51;;;;;;;8.98;3.70;;;18.10;92.30;;;;;;5011628;28;20030;-51
2022/05/27 00:58:37;;;;;;;8.23;3.38;;;18.00;92.40;;;;;;5012117;28;20473;-54
2022/05/27 01:01:04;;;;;;;6.32;3.45;;;18.10;92.30;;;;;;5012236;28;20034;-53
2022/05/27 01:03:31;;;;;;;9.00;3.85;;;18.20;92.20;;;;;;5012182;28;20441;-55
2022/05/27 01:05:57;;;;;;;8.77;3.65;;;18.30;92.10;;;;;;5011823;28;20077;-52
2022/05/27 01:08:26;;;;;;;8.60;3.45;;;18.10;92.20;;;;;;5011849;28;20160;-52
2022/05/27 01:11:03;;;;;;;7.03;4.05;;;18.10;92.20;;;;;;5011917;28;20092;-51
2022/05/27 01:13:53;;;;;;;5.40;3.38;;;18.10;92.20;;;;;;5011536;28;20045;-52
2022/05/27 01:16:46;;;;;;;6.38;3.50;;;18.10;92.30;;;;;;5011025;28;20065;-55
2022/05/27 01:22:49;;;;;;;4.00;3.03;;;18.20;92.10;;;;;;4998481;28;20026;-51
2022/05/27 01:25:33;;;;;;;4.82;3.30;;;18.20;92.00;;;;;;5011353;28;20596;-56
2022/05/27 01:28:22;;;;;;;6.90;3.38;;;18.30;92.00;;;;;;5011227;28;20092;-53
2022/05/27 01:31:03;;;;;;;7.63;3.75;;;18.30;91.90;;;;;;5011701;28;20100;-54
2022/05/27 01:33:34;;;;;;;5.43;3.67;;;18.20;92.00;;;;;;5011207;28;20030;-51
2022/05/27 01:36:13;;;;;;;8.77;3.90;;;18.20;92.20;;;;;;5011077;28;20042;-53
2022/05/27 01:39:02;;;;;;;7.28;3.97;;;18.10;92.40;;;;;;5012051;28;20025;-53
2022/05/27 01:41:36;;;;;;;5.70;3.53;;;18.00;92.80;;;;;;5012690;28;20030;-51
2022/05/27 01:44:11;;;;;;;6.18;3.72;;;17.90;93.00;;;;;;5011945;28;20044;-55
2022/05/27 01:46:47;;;;;;;8.43;3.88;;;17.80;93.10;;;;;;5012507;28;20065;-54
2022/05/27 01:49:31;;;;;;;6.70;3.72;;;17.90;93.20;;;;;;5013305;28;20050;-52
2022/05/27 01:52:08;;;;;;;5.75;3.65;;;17.90;93.20;;;;;;5011267;28;20034;-54
2022/05/27 01:54:44;;;;;;;7.50;3.38;;;17.90;93.30;;;;;;4991813;28;20034;-55
2022/05/27 01:57:17;;;;;;;7.32;3.70;;;17.80;93.70;;;;;;4991047;28;20057;-53
2022/05/27 01:59:56;;;;;;;5.97;3.47;;;17.80;93.70;;;;;;4991910;28;20065;-52
2022/05/27 02:02:25;;;;;;;6.90;4.28;;;17.70;94.00;;;;;;4992973;28;20122;-51
2022/05/27 02:05:06;;;;;;;6.75;3.90;;;17.70;94.20;;;;;;5011478;28;20065;-52
2022/05/27 02:07:53;;;;;;;10.15;4.05;;;17.60;94.30;;;;;;5011044;28;20248;-51
2022/05/27 02:10:29;;;;;;;5.47;3.67;;;17.60;94.50;;;;;;5011707;28;20117;-55
2022/05/27 02:12:57;;;;;;;5.63;3.55;;;17.60;94.90;;;;;;5011661;28;20466;-51
2022/05/27 02:15:29;;;;;;;7.40;3.60;;;17.50;95.40;;;;;;5010620;28;20179;-52
2022/05/27 02:18:00;;;;;;;6.05;3.50;;;17.40;95.80;;;;;;4993055;28;20030;-51
2022/05/27 02:20:33;;;;;;;10.20;3.50;;;17.40;96.00;;;;;;5011386;28;20026;-54
2022/05/27 02:23:03;;;;;;;5.07;3.40;;;17.40;96.30;;;;;;5011253;28;20393;-53
2022/05/27 02:25:35;;;;;;;6.50;3.58;;;17.40;96.50;;;;;;5011296;28;20034;-53
2022/05/27 02:28:10;;;;;;;4.90;3.20;;;17.40;96.50;;;;;;5011083;28;20030;-51
2022/05/27 02:30:39;;;;;;;5.18;3.55;;;17.40;96.70;;;;;;5011404;28;20665;-52
2022/05/27 02:36:06;;;;;;;8.35;3.63;;;17.20;97.30;;;;;;5014122;28;20037;-54
2022/05/27 02:38:31;;;;;;;6.78;3.67;;;17.20;97.30;;;;;;5015160;28;20081;-55
2022/05/27 02:41:07;;;;;;;8.10;3.75;;;17.20;97.50;;;;;;5015285;28;20481;-52
2022/05/27 02:43:51;;;;;;;5.07;3.33;;;17.20;97.80;;;;;;5015303;28;20033;-55
2022/05/27 02:46:36;;;;;;;7.68;3.35;;;17.20;97.80;;;;;;5014598;28;20489;-52
2022/05/27 02:49:33;;;;;;;6.60;4.38;;;17.20;98.00;;;;;;4997340;28;20429;-53
2022/05/27 02:52:14;;;;;;;8.10;3.88;;;17.10;98.50;;;;;;5015264;28;20026;-52
2022/05/27 02:55:02;;;;;;;4.18;3.38;;;17.20;98.60;;;;;;4996018;28;20041;-51
2022/05/27 02:57:35;;;;;;;5.90;3.60;;;17.10;98.80;;;;;;4996524;28;20061;-51
2022/05/27 03:00:09;;;;;;;6.60;3.70;;;17.10;98.90;;;;;;4997836;28;20058;-51
2022/05/27 03:02:35;;;;;;;5.95;3.60;;;17.10;99.00;;;;;;5015460;28;20521;-51
2022/05/27 03:05:03;;;;;;;6.22;3.60;;;17.10;99.00;;;;;;5016212;28;20045;-53
2022/05/27 03:07:38;;;;;;;5.57;3.80;;;17.10;99.10;;;;;;5014943;28;20030;-51
2022/05/27 03:10:23;;;;;;;6.20;3.95;;;17.10;99.20;;;;;;5015225;28;20072;-51
2022/05/27 03:13:06;;;;;;;6.40;3.80;;;17.30;98.80;;;;;;5014701;28;20029;-54
2022/05/27 03:15:51;;;;;;;5.93;4.30;;;17.30;98.90;;;;;;5014272;28;20046;-55
2022/05/27 03:18:27;;;;;;;8.65;3.75;;;17.30;99.20;;;;;;5014286;28;20034;-55
2022/05/27 03:21:19;;;;;;;9.55;3.92;;;17.20;99.20;;;;;;5015035;28;20149;-53
2022/05/27 03:24:17;;;;;;;5.93;3.67;;;17.30;99.40;;;;;;5014178;28;20117;-52
2022/05/27 03:27:04;;;;;;;7.50;4.05;;;17.30;99.40;;;;;;5013743;28;20061;-54
2022/05/27 03:29:56;;;;;;;6.88;3.92;;;17.10;99.80;;;;;;4994579;28;20062;-54
2022/05/27 03:32:30;;;;;;;8.13;4.15;;;17.00;99.90;;;;;;4997613;28;20034;-51
2022/05/27 03:35:13;;;;;;;10.52;4.55;;;16.90;99.90;;;;;;5013823;28;20160;-53
2022/05/27 03:38:04;;;;;;;7.20;3.88;;;16.80;99.90;;;;;;5013473;28;20037;-55
2022/05/27 03:40:50;;;;;;;9.15;5.00;;;16.60;99.90;;;;;;5014180;28;20120;-51
2022/05/27 03:43:17;;;;;;;10.18;4.65;;;16.60;99.90;;;;;;5012737;28;20038;-55
2022/05/27 03:45:56;;;;;;;9.23;5.03;;;16.50;99.90;;;;;;5013250;28;20025;-52
2022/05/27 03:48:23;;;;;;;9.27;4.22;;;16.40;99.90;;;;;;5013689;28;20128;-52
2022/05/27 03:50:52;;;;;;;7.38;4.50;;;16.40;99.90;;;;;;5013479;28;20112;-51
2022/05/27 03:53:18;;;;;;;13.18;4.45;;;16.50;99.90;;;;;;5013246;28;20038;-54
2022/05/27 03:55:47;;;;;;;11.77;4.60;;;16.40;99.90;;;;;;5012759;28;20026;-53
2022/05/27 03:58:16;;;;;;;8.18;4.65;;;16.60;99.90;;;;;;5013412;28;20397;-53
2022/05/27 04:00:43;;;;;;;12.18;5.00;;;16.50;99.90;;;;;;5013897;28;20148;-55
2022/05/27 04:03:10;;;;;;;10.95;5.07;;;16.50;99.90;;;;;;5013635;28;20026;-52
2022/05/27 04:05:36;;;;;;;11.65;5.55;;;16.40;99.90;;;;;;5012804;28;20512;-54
2022/05/27 04:08:02;;;;;;;11.43;6.13;;;16.30;99.90;;;;;;5013223;28;20046;-56
2022/05/27 04:10:28;;;;;;;7.93;5.32;;;16.30;99.90;;;;;;5013508;28;20046;-52
2022/05/27 04:12:53;;;;;;;12.95;5.43;;;16.10;99.90;;;;;;5013272;28;20033;-51
2022/05/27 04:15:19;;;;;;;9.13;4.97;;;16.00;99.90;;;;;;5013170;28;20048;-53
2022/05/27 04:17:45;;;;;;;9.07;4.93;;;15.90;99.90;;;;;;5012420;28;20555;-54
2022/05/27 04:20:14;;;;;;;10.60;5.40;;;16.00;99.90;;;;;;5013366;28;20034;-54
2022/05/27 04:22:40;;;;;;;9.13;5.95;;;15.90;99.90;;;;;;5013413;28;20037;-55
2022/05/27 04:25:06;;;;;;;7.60;4.90;;;16.00;99.90;;;;;;5013254;28;20018;-54
2022/05/27 04:27:33;;;;;;;8.27;4.97;;;16.10;99.90;;;;;;5012592;28;20421;-52
2022/05/27 04:29:58;;;;;;;9.77;5.75;;;16.10;99.90;;;;;;5012724;28;20030;-55
2022/05/27 04:32:27;;;;;;;9.10;5.05;;;16.20;99.90;;;;;;4995046;28;20030;-56
2022/05/27 04:34:54;;;;;;;8.65;5.13;;;16.00;99.90;;;;;;4995753;28;20095;-56
2022/05/27 04:37:22;;;;;;;8.45;5.18;;;16.00;99.90;;;;;;5011741;28;20041;-56
2022/05/27 04:39:48;;;;;;;7.72;5.20;;;16.00;99.90;;;;;;5012745;28;20026;-56
2022/05/27 04:42:14;;;;;;;9.23;5.65;;;16.00;99.90;;;;;;5012582;28;20113;-51
2022/05/27 04:44:40;;;;;;;8.85;5.15;;;15.90;99.90;;;;;;5012416;28;20117;-51
2022/05/27 04:47:07;;;;;;;10.18;6.20;;;15.80;99.90;;;;;;5011756;28;20037;-52
2022/05/27 04:49:56;;;;;;;8.93;5.43;;;15.80;99.90;;;;;;5012155;28;20044;-54
2022/05/27 04:52:27;;;;;;;9.43;5.50;;;15.80;99.90;;;;;;5012623;28;20208;-54
2022/05/27 04:54:53;;;;;;;8.18;5.10;;;15.70;99.90;;;;;;5011944;28;20045;-55
2022/05/27 04:57:25;;;;;;;10.23;5.75;;;15.60;99.90;;;;;;5011495;28;20021;-55
2022/05/27 04:59:50;;;;;;;9.18;5.38;;;15.70;99.90;;;;;;5012522;28;20038;-52
2022/05/27 05:02:21;;;;;;;10.27;4.68;;;15.70;99.90;;;;;;5012393;28;20533;-53
2022/05/27 05:04:51;;;;;;;7.63;4.88;;;15.70;99.90;;;;;;5012607;28;20034;-52
2022/05/27 05:07:19;;;;;;;10.18;5.25;;;15.70;99.90;;;;;;5011575;28;20132;-50
2022/05/27 05:09:45;;;;;;;9.20;5.00;;;15.60;99.90;;;;;;5012111;28;20041;-51
2022/05/27 05:12:12;;;;;;;8.07;5.05;;;15.70;99.90;;;;;;5014581;28;20514;-56
2022/05/27 05:14:39;;;;;;;7.72;5.25;;;15.60;99.90;;;;;;5016407;28;20030;-51
2022/05/27 05:17:05;;;;;;;9.63;5.78;;;15.60;99.90;;;;;;4997551;28;20046;-53
2022/05/27 05:19:30;;;;;;;9.45;6.05;;;15.60;99.90;;;;;;5012719;28;20168;-56
2022/05/27 05:21:56;;;;;;;6.55;4.85;;;15.50;99.90;;;;;;5011960;28;20034;-50
2022/05/27 05:24:22;;;;;;;6.75;4.93;;;15.50;99.90;;;;;;5012253;28;20038;-54
2022/05/27 05:26:48;;;;;;;5.80;4.40;;;15.60;99.90;;;;;;5010852;28;20038;-54
2022/05/27 05:29:14;;;;;;;5.88;4.70;;;15.60;99.90;;;;;;5012207;28;20820;-52
2022/05/27 05:31:39;;;;;;;8.15;4.60;;;15.70;99.90;;;;;;5012155;28;20034;-53
2022/05/27 05:34:05;;;;;;;5.43;4.10;;;15.70;99.90;;;;;;5011748;28;20021;-53
2022/05/27 05:36:31;;;;;;;7.53;3.70;;;15.70;99.90;;;;;;5011167;28;20406;-52
2022/05/27 05:38:57;;;;;;;5.82;3.78;;;15.70;99.90;;;;;;5012433;28;20033;-54
2022/05/27 05:41:27;;;;;;;4.68;3.55;;;15.60;99.90;;;;;;5011763;28;20034;-51
2022/05/27 05:43:54;;;;;;;4.20;2.58;;;15.70;99.90;;;;;;5012113;28;20026;-52
2022/05/27 05:46:19;;;;;;;3.95;2.20;;;15.40;99.90;;;;;;5010505;28;20148;-56
2022/05/27 05:48:45;;;;;;;5.40;2.28;;;14.40;99.90;;;;;;5011883;28;20113;-57
2022/05/27 05:51:10;;;;;;;3.42;1.98;;;14.00;99.90;;;;;;5011397;28;20117;-58
2022/05/27 05:53:36;;;;;;;3.13;2.10;;;13.70;99.90;;;;;;4994174;28;20042;-60
2022/05/27 05:56:01;;;;;;;2.67;2.28;;;13.60;99.90;;;;;;5010646;28;20030;-60
2022/05/27 05:58:27;;;;;;;3.72;2.30;;;13.80;99.90;;;;;;5011440;28;20513;-57
2022/05/27 06:00:52;;;;;;;3.58;2.38;;;13.80;99.90;;;;;;5011477;28;20026;-57
2022/05/27 06:03:19;;;;;;;4.25;2.15;;;13.80;99.90;;;;;;5011382;28;20034;-58
2022/05/27 06:05:47;;;;;;;6.35;2.50;;;13.80;99.90;;;;;;5010435;28;20042;-55
2022/05/27 06:08:14;;;;;;;5.18;2.03;;;13.70;99.90;;;;;;5011340;28;20045;-57
2022/05/27 06:10:41;;;;;;;3.05;2.13;;;13.90;99.90;;;;;;5011123;28;20042;-52
2022/05/27 06:13:07;;;;;;;4.50;2.30;;;14.10;99.90;;;;;;5011491;28;20034;-56
2022/05/27 06:15:33;;;;;;;4.53;2.45;;;13.90;99.90;;;;;;5010844;28;20044;-54
2022/05/27 06:17:59;;;;;;;4.03;2.80;;;14.00;99.90;;;;;;5011137;28;20033;-52
2022/05/27 06:20:26;;;;;;;2.75;2.10;;;14.10;99.90;;;;;;5011257;28;20069;-54
2022/05/27 06:22:52;;;;;;;4.35;2.35;;;14.00;99.90;;;;;;5010991;28;20424;-55
2022/05/27 06:25:17;;;;;;;3.67;2.30;;;14.00;99.90;;;;;;5010828;28;20179;-54
2022/05/27 06:27:43;;;;;;;4.50;2.55;;;14.00;99.90;;;;;;5011147;28;20034;-54
2022/05/27 06:35:41;;;;;;;2.97;2.30;;;14.00;99.90;;;;;;4995396;28;20393;-54
2022/05/27 06:38:07;;;;;;;3.85;2.20;;;14.00;99.90;;;;;;5010727;28;20034;-54
2022/05/27 06:40:33;;;;;;;3.63;2.50;;;14.20;99.90;;;;;;5011227;28;20038;-53
2022/05/27 06:42:58;;;;;;;3.72;2.40;;;14.30;99.90;;;;;;5010997;28;20048;-53
2022/05/27 06:45:24;;;;;;;5.03;2.30;;;14.50;99.90;;;;;;5010697;28;20703;-52
2022/05/27 06:47:50;;;;;;;4.47;2.20;;;14.50;99.90;;;;;;5010955;28;20041;-54
2022/05/27 06:50:15;;;;;;;3.58;2.53;;;14.50;99.90;;;;;;5011335;28;20049;-57
2022/05/27 06:52:42;;;;;;;3.25;2.40;;;14.40;99.90;;;;;;4993690;28;20041;-53
2022/05/27 06:55:10;;;;;;;3.25;2.40;;;14.40;99.90;;;;;;5010594;28;20417;-58
2022/05/27 06:57:35;;;;;;;3.65;2.30;;;14.50;99.90;;;;;;5011323;28;20120;-54
2022/05/27 07:00:03;;;;;;;2.67;2.25;;;14.40;99.90;;;;;;5011135;28;20058;-53
2022/05/27 07:02:28;;;;;;;4.90;2.40;;;14.60;99.90;;;;;;4995267;28;20053;-56
2022/05/27 07:04:54;;;;;;;3.85;2.25;;;14.60;99.90;;;;;;5011691;28;20386;-54
2022/05/27 07:07:21;;;;;;;4.57;2.70;;;14.40;99.90;;;;;;5011077;28;20474;-53
2022/05/27 07:09:47;;;;;;;5.93;2.83;;;14.40;99.90;;;;;;5011147;28;20038;-55
2022/05/27 07:12:12;;;;;;;2.40;2.10;;;14.50;99.90;;;;;;5011636;28;20038;-55
2022/05/27 07:14:39;;;;;;;3.65;2.45;;;14.70;99.90;;;;;;5010910;28;20122;-52
2022/05/27 07:17:05;;;;;;;4.28;2.72;;;14.70;99.90;;;;;;5010046;28;20065;-53
2022/05/27 07:19:30;;;;;;;3.67;2.30;;;14.60;99.90;;;;;;5013489;28;20034;-53
2022/05/27 07:21:56;;;;;;;4.43;2.25;;;14.70;99.90;;;;;;5014844;28;20040;-52
2022/05/27 07:24:24;;;;;;;3.78;2.22;;;14.70;99.90;;;;;;5014538;28;20440;-54
2022/05/27 07:26:49;;;;;;;2.42;2.22;;;14.80;99.90;;;;;;5014001;28;20034;-56
2022/05/27 07:29:15;;;;;;;2.92;1.92;;;15.10;99.90;;;;;;5014367;28;20053;-56
2022/05/27 07:31:42;;;;;;;3.13;2.22;;;15.30;99.90;;;;;;5014204;28;20034;-56
2022/05/27 07:34:08;;;;;;;3.45;2.70;;;15.30;99.90;;;;;;5014135;28;20030;-56
2022/05/27 07:36:33;;;;;;;2.60;2.25;;;15.30;99.90;;;;;;5009093;28;20081;-53
2022/05/27 07:38:59;;;;;;;4.85;2.33;;;15.30;99.90;;;;;;5014621;28;20540;-50
2022/05/27 07:41:27;;;;;;;3.60;2.45;;;15.50;99.90;;;;;;5013523;28;20054;-55
2022/05/27 07:43:53;;;;;;;4.80;2.70;;;15.50;99.90;;;;;;5004765;28;20034;-56
2022/05/27 07:46:21;;;;;;;2.35;2.15;;;15.40;99.90;;;;;;5010810;28;20030;-53
2022/05/27 07:48:46;;;;;;;6.55;2.60;;;15.40;99.90;;;;;;5010462;28;20113;-54
2022/05/27 07:51:12;;;;;;;2.95;2.25;;;15.60;99.90;;;;;;5013828;28;20178;-57
2022/05/27 07:53:40;;;;;;;3.65;2.60;;;15.60;99.90;;;;;;5010518;28;20033;-57
2022/05/27 07:56:07;;;;;;;3.63;2.55;;;15.40;99.90;;;;;;5009406;28;20096;-55
2022/05/27 07:58:33;;;;;;;4.05;2.60;;;15.50;99.90;;;;;;5005702;28;20045;-56
2022/05/27 08:00:59;;;;;;;4.22;2.60;;;15.50;99.90;;;;;;5013465;28;20034;-54
2022/05/27 08:03:25;;;;;;;4.18;2.40;;;15.70;99.90;;;;;;5007936;28;20052;-54
2022/05/27 08:05:51;;;;;;;3.95;2.33;;;15.90;99.90;;;;;;5012566;28;20057;-56
2022/05/27 08:08:19;;;;;;;6.13;2.92;;;16.00;99.90;;;;;;5012576;28;20032;-53
2022/05/27 08:10:45;;;;;;;5.93;2.60;;;16.00;99.90;;;;;;5013698;28;20034;-55
2022/05/27 08:13:11;;;;;;;2.70;2.20;;;15.90;99.90;;;;;;5013406;28;20564;-50
2022/05/27 08:15:37;;;;;;;3.08;2.08;;;16.00;99.90;;;;;;4994896;28;20030;-56
2022/05/27 08:18:03;;;;;;;2.42;2.22;;;16.10;99.90;;;;;;5013127;28;20486;-56
2022/05/27 08:20:31;;;;;;;3.08;2.65;;;16.30;99.90;;;;;;5014091;28;20660;-52
2022/05/27 08:22:58;;;;;;;3.17;2.42;;;16.20;99.90;;;;;;5014063;28;20026;-53
2022/05/27 08:25:25;;;;;;;3.25;2.40;;;16.00;99.90;;;;;;5012996;28;20030;-53
2022/05/27 08:27:51;;;;;;;3.45;2.45;;;16.00;99.90;;;;;;5013610;28;20519;-49
2022/05/27 08:30:20;;;;;;;4.20;2.50;;;15.90;99.90;;;;;;5013250;28;20033;-52
2022/05/27 08:32:47;;;;;;;3.60;2.60;;;16.00;99.90;;;;;;5013234;28;20033;-52
2022/05/27 08:38:02;;;;;;;2.60;2.40;;;16.10;99.90;;;;;;5013534;28;20041;-53
2022/05/27 08:41:00;;;;;;;3.25;2.90;;;16.10;99.90;;;;;;4995384;28;20532;-52
2022/05/27 08:43:50;;;;;;;3.72;2.80;;;16.00;99.90;;;;;;5012940;28;20370;-52
2022/05/27 08:46:58;;;;;;;3.25;2.70;;;16.20;99.90;;;;;;5011007;28;20026;-51
2022/05/27 08:49:32;;;;;;;3.03;2.72;;;16.30;99.90;;;;;;5004242;28;20038;-51
2022/05/27 08:52:01;;;;;;;;;;;16.60;99.90;;;;;;5013643;28;20068;-50
2022/05/27 08:54:32;;;;;;;4.13;2.70;;;16.40;99.90;;;;;;5012644;28;19905;-50
2022/05/27 09:00:14;;;;;;;5.15;2.97;;;16.60;99.90;;;;;;5012619;28;20033;-54
2022/05/27 09:02:51;;;;;;;6.57;3.15;;;16.40;99.90;;;;;;5004628;28;20030;-55
2022/05/27 09:05:22;;;;;;;5.68;3.05;;;16.30;99.90;;;;;;5012714;28;20115;-55
2022/05/27 09:07:54;;;;;;;4.63;2.60;;;16.40;99.90;;;;;;5012850;28;20497;-53
2022/05/27 09:10:32;;;;;;;6.43;3.20;;;16.40;99.90;;;;;;5012923;28;20044;-52
2022/05/27 09:13:30;;;;;;;6.15;3.10;;;16.50;99.90;;;;;;5012556;28;20022;-51
2022/05/27 09:16:07;;;;;;;3.80;3.28;;;16.60;99.90;;;;;;5011522;28;20026;-53
2022/05/27 09:19:02;;;;;;;5.45;3.13;;;16.80;99.90;;;;;;5012517;28;20034;-51
2022/05/27 09:21:34;;;;;;;5.63;3.05;;;16.90;99.90;;;;;;5012784;28;20030;-50
2022/05/27 09:24:10;;;;;;;6.25;3.30;;;17.00;99.90;;;;;;5012541;28;20088;-55
2022/05/27 09:27:03;;;;;;;4.72;2.65;;;17.10;99.90;;;;;;4993893;28;20037;-51
2022/05/27 09:29:54;;;;;;;8.02;2.90;;;17.30;98.20;;;;;;5011947;28;20057;-53
2022/05/27 09:32:47;;;;;;;5.03;3.00;;;17.50;99.10;;;;;;5010094;28;20375;-55
2022/05/27 09:35:21;;;;;;;5.38;2.90;;;17.80;99.10;;;;;;4994969;28;20490;-52
2022/05/27 09:37:50;;;;;;;6.22;3.28;;;17.70;98.90;;;;;;5012142;28;20034;-53
2022/05/27 09:40:33;;;;;;;7.75;3.33;;;17.30;99.90;;;;;;5011412;28;20080;-51
2022/05/27 09:43:24;;;;;;;6.00;3.08;;;17.30;99.90;;;;;;5011628;28;20026;-54
2022/05/27 09:46:00;;;;;;;4.45;3.20;;;17.40;99.90;;;;;;5011451;28;20084;-56
2022/05/27 09:48:26;;;;;;;5.40;3.10;;;17.40;99.90;;;;;;5011804;28;20025;-54
2022/05/27 09:50:55;;;;;;;6.03;3.00;;;17.10;99.90;;;;;;5011558;28;20038;-53
2022/05/27 09:53:27;;;;;;;5.05;3.08;;;17.30;99.90;;;;;;5011633;28;20030;-51
2022/05/27 09:56:02;;;;;;;6.80;3.80;;;17.40;99.90;;;;;;5011271;28;20038;-56
2022/05/27 09:58:31;;;;;;;4.15;3.38;;;17.60;99.90;;;;;;4994609;28;20064;-53
2022/05/27 10:00:57;;;;;;;4.70;2.95;;;17.50;99.50;;;;;;5010912;28;20042;-54
2022/05/27 10:03:25;;;;;;;6.30;3.20;;;17.50;99.20;;;;;;4992735;28;20040;-48
2022/05/27 10:05:52;;;;;;;5.38;3.05;;;17.60;99.10;;;;;;4992167;28;20034;-56
2022/05/27 10:08:54;;;;;;;6.00;3.38;;;17.70;98.70;;;;;;5011407;28;20040;-55
2022/05/27 10:11:28;;;;;;;4.30;3.00;;;18.10;98.40;;;;;;4989860;28;20038;-53
2022/05/27 10:14:06;;;;;;;6.57;3.05;;;18.00;97.90;;;;;;5011753;28;20460;-54
2022/05/27 10:16:32;;;;;;;7.93;3.83;;;17.70;97.90;;;;;;5010828;28;20041;-52
2022/05/27 10:19:13;;;;;;;6.88;3.53;;;17.50;97.90;;;;;;5012116;28;20046;-55
2022/05/27 10:22:09;;;;;;;4.90;3.17;;;17.30;98.10;;;;;;4997883;28;20551;-56
2022/05/27 10:24:42;;;;;;;4.78;3.03;;;17.40;98.20;;;;;;5005221;28;20121;-51
2022/05/27 10:27:16;;;;;;;6.53;3.35;;;17.30;98.00;;;;;;5013970;28;20037;-58
2022/05/27 10:29:52;;;;;;;7.13;3.47;;;17.50;98.50;;;;;;5018248;28;20048;-58
2022/05/27 10:32:31;;;;;;;6.97;3.28;;;17.70;98.00;;;;;;5020417;28;20053;-54
2022/05/27 10:34:58;;;;;;;9.18;3.53;;;17.80;98.80;;;;;;5020633;28;20045;-54
2022/05/27 10:37:47;;;;;;;7.22;3.17;;;17.90;98.20;;;;;;5019725;28;20417;-59
2022/05/27 10:40:35;;;;;;;13.32;3.53;;;18.10;97.90;;;;;;5020068;28;20061;-56
2022/05/27 10:43:32;;;;;;;9.45;3.80;;;17.70;97.00;;;;;;5004852;28;20081;-49
2022/05/27 10:46:03;;;;;;;8.48;3.42;;;18.00;97.40;;;;;;5008926;28;20037;-54
2022/05/27 10:49:03;;;;;;;4.20;3.30;;;18.00;97.50;;;;;;5005367;28;20030;-52
2022/05/27 10:51:42;;;;;;;5.22;3.38;;;18.20;97.20;;;;;;5004026;28;20095;-51
2022/05/27 10:55:11;;;;;;;7.60;3.33;;;18.30;97.40;;;;;;5016385;28;20414;-52
2022/05/27 11:04:16;;;;;;;5.32;3.30;;;18.00;96.80;;;;;;5016960;28;20384;-50
2022/05/27 11:07:00;;;;;;;8.02;4.00;;;17.70;96.60;;;;;;5003307;28;20041;-55
2022/05/27 11:09:39;;;;;;;8.50;3.67;;;17.60;96.70;;;;;;5016641;28;20068;-53
2022/05/27 11:15:48;;;;;;;12.38;4.43;;;18.00;96.30;;;;;;5011843;28;20568;-52
2022/05/27 11:18:37;;;;;;;5.45;3.28;;;18.10;96.90;;;;;;5015666;28;20120;-50
2022/05/27 11:21:09;;;;;;;5.53;3.38;;;18.20;96.60;;;;;;5008249;28;20397;-51
2022/05/27 11:23:58;;;;;;;7.35;3.58;;;18.40;96.40;;;;;;5016192;28;20389;-52
2022/05/27 11:27:07;;;;;;;6.43;3.28;;;18.40;96.80;;;;;;5015314;28;20033;-55
2022/05/27 11:30:28;;;;;;;5.38;3.50;;;18.50;96.80;;;;;;5014454;28;20192;-55
2022/05/27 11:33:19;;;;;;;6.85;3.60;;;18.60;96.70;;;;;;4973051;28;20042;-53
2022/05/27 11:36:12;;;;;;;6.60;3.83;;;18.50;96.20;;;;;;4957664;28;20421;-53
2022/05/27 11:39:05;;;;;;;6.53;3.13;;;18.50;96.00;;;;;;5009615;28;20093;-53
2022/05/27 11:41:53;;;;;;;6.80;3.80;;;18.60;95.40;;;;;;5016269;28;20110;-54
2022/05/27 11:44:43;;;;;;;6.53;3.33;;;18.60;93.90;;;;;;4995513;28;20429;-55
2022/05/27 11:47:41;;;;;;;5.30;3.30;;;18.40;93.60;;;;;;5015242;28;20040;-52
2022/05/27 11:50:35;;;;;;;7.90;3.88;;;18.40;94.00;;;;;;5015863;28;20086;-57
2022/05/27 11:53:16;;;;;;;6.00;2.90;;;18.60;94.00;;;;;;5015285;28;20038;-54
2022/05/27 11:55:56;;;;;;;6.07;3.30;;;18.70;92.70;;;;;;4986216;28;20289;-51
2022/05/27 11:58:44;;;;;;;7.15;3.70;;;18.80;90.00;;;;;;4999802;28;20076;-53
2022/05/27 12:01:27;;;;;;;7.35;3.30;;;18.60;90.10;;;;;;4992086;28;20045;-55
2022/05/27 12:04:00;;;;;;;5.20;2.78;;;18.60;90.40;;;;;;5014825;28;20091;-54
2022/05/27 12:06:43;;;;;;;5.15;2.90;;;18.60;90.30;;;;;;5008917;28;20034;-56
2022/05/27 12:09:38;;;;;;;4.40;3.03;;;18.40;90.10;;;;;;5008075;28;20596;-50
2022/05/27 12:12:10;;;;;;;6.65;3.10;;;18.50;88.50;;;;;;4996822;28;20033;-52
2022/05/27 12:14:44;;;;;;;6.15;3.10;;;18.80;85.90;;;;;;5014769;28;20038;-53
2022/05/27 12:17:16;;;;;;;7.38;3.40;;;18.90;86.20;;;;;;5013657;28;20120;-55
2022/05/27 12:19:57;;;;;;;5.35;2.70;;;18.80;82.60;;;;;;5014543;28;20036;-57
2022/05/27 12:22:27;;;;;;;3.72;2.60;;;18.80;78.20;;;;;;5015004;28;20037;-56
2022/05/27 12:25:16;;;;;;;4.63;2.85;;;18.90;75.10;;;;;;5015571;28;20026;-56
2022/05/27 12:27:42;;;;;;;4.55;2.60;;;19.10;73.60;;;;;;5014282;28;20030;-58
2022/05/27 12:30:12;;;;;;;5.97;2.88;;;19.40;71.90;;;;;;5013508;28;20442;-57
2022/05/27 12:32:44;;;;;;;7.22;2.65;;;19.80;72.50;;;;;;5012056;28;20026;-53
2022/05/27 12:35:21;;;;;;;6.40;2.63;;;19.80;71.40;;;;;;4993915;28;20038;-55
2022/05/27 12:37:57;;;;;;;5.70;2.95;;;19.50;71.80;;;;;;5013619;28;20034;-57
2022/05/27 12:40:29;;;;;;;5.25;2.85;;;19.30;67.40;;;;;;5012949;28;20022;-55
2022/05/27 12:42:59;;;;;;;6.72;2.88;;;19.20;67.20;;;;;;5014093;28;20018;-57
2022/05/27 12:45:24;;;;;;;6.03;2.75;;;19.20;64.40;;;;;;5013284;28;20454;-55
2022/05/27 12:47:53;;;;;;;8.05;3.05;;;19.30;64.00;;;;;;5012605;28;20057;-52
2022/05/27 12:50:29;;;;;;;5.40;2.60;;;19.40;63.60;;;;;;5014243;28;20041;-57
2022/05/27 12:52:58;;;;;;;7.80;2.92;;;19.40;62.60;;;;;;5012657;28;20057;-55
2022/05/27 13:02:22;;;;;;;6.60;2.92;;;19.60;60.30;;;;;;4994558;28;20466;-53
2022/05/27 13:05:00;;;;;;;10.63;3.08;;;20.00;62.60;;;;;;4992434;28;20030;-56
2022/05/27 13:07:28;;;;;;;6.07;2.85;;;20.20;62.30;;;;;;4992726;28;20038;-56
2022/05/27 13:09:55;;;;;;;6.65;3.08;;;20.10;60.70;;;;;;4993109;28;20064;-56
2022/05/27 13:12:42;;;;;;;4.35;2.70;;;19.60;61.40;;;;;;4994158;28;20446;-55
2022/05/27 13:15:23;;;;;;;8.38;3.00;;;19.40;62.70;;;;;;5012205;28;20033;-56
2022/05/27 13:18:07;;;;;;;10.15;3.47;;;19.20;64.30;;;;;;5013103;28;20037;-54
2022/05/27 13:20:51;;;;;;;4.60;2.92;;;19.20;67.70;;;;;;4992534;28;20523;-53
2022/05/27 13:23:21;;;;;;;7.45;3.03;;;19.40;66.50;;;;;;5013088;28;20025;-53
2022/05/27 13:26:04;;;;;;;6.15;2.60;;;19.40;63.80;;;;;;5012955;28;20037;-55
2022/05/27 13:28:37;;;;;;;9.45;3.47;;;19.20;61.50;;;;;;5013237;28;20026;-56
2022/05/27 13:31:02;;;;;;;6.80;3.00;;;19.20;60.30;;;;;;5012807;28;20034;-55
2022/05/27 13:33:45;;;;;;;7.47;3.03;;;19.10;62.40;;;;;;5012820;28;20037;-56
2022/05/27 13:36:21;;;;;;;4.82;2.85;;;19.40;61.50;;;;;;5012836;28;20033;-54
2022/05/27 13:39:01;;;;;;;9.13;3.72;;;19.50;61.40;;;;;;5012950;28;20022;-56
2022/05/27 13:41:35;;;;;;;4.65;2.70;;;19.70;62.20;;;;;;4995943;28;20121;-55
2022/05/27 13:44:02;;;;;;;5.20;2.85;;;19.50;63.60;;;;;;5007104;28;20049;-56
2022/05/27 13:46:32;;;;;;;8.35;3.30;;;19.20;64.30;;;;;;5011388;28;20504;-57
2022/05/27 13:49:11;;;;;;;7.03;3.10;;;19.20;64.10;;;;;;5011851;28;20042;-54
2022/05/27 13:51:45;;;;;;;6.10;2.95;;;19.60;63.90;;;;;;5011644;28;20114;-57
2022/05/27 13:54:16;;;;;;;5.28;2.85;;;20.00;62.40;;;;;;5013100;28;20022;-58